createdAt,value
2022-10-15T00:01:32.206Z,111.35
2022-10-15T00:05:37.537Z,108.95
2022-10-15T00:09:39.492Z,132.25
2022-10-15T00:13:42.235Z,130.93
2022-10-15T00:17:44.355Z,122.72
2022-10-15T00:21:46.138Z,131.45
2022-10-15T00:25:48.074Z,141.35
2022-10-15T00:29:49.787Z,150.70
2022-10-15T00:33:53.797Z,154.05
2022-10-15T00:37:57.325Z,158.30
2022-10-15T00:41:59.461Z,143.38
2022-10-15T00:46:01.323Z,154.98
2022-10-15T00:50:27.381Z,145.88
2022-10-15T00:54:34.800Z,177.32
2022-10-15T00:58:37.290Z,143.45
2022-10-15T01:02:39.234Z,153.70
2022-10-15T01:06:41.269Z,158.85
2022-10-15T01:11:17.308Z,184.02
2022-10-15T01:15:49.510Z,136.45
2022-10-15T01:20:14.918Z,207.02
2022-10-15T01:24:44.290Z,205.40
2022-10-15T01:29:06.267Z,230.40
2022-10-15T01:33:22.016Z,255.05
2022-10-15T01:37:48.979Z,298.98
2022-10-15T01:42:07.575Z,283.90
2022-10-15T01:46:15.995Z,241.57
2022-10-15T01:50:31.697Z,253.43
2022-10-15T01:54:34.510Z,253.52
2022-10-15T01:58:40.988Z,258.50
2022-10-15T02:02:43.369Z,298.85
2022-10-15T02:06:50.073Z,285.67
2022-10-15T02:11:06.585Z,333.58
2022-10-15T02:15:11.653Z,275.05
2022-10-15T02:19:39.924Z,343.15
2022-10-15T02:23:53.080Z,316.95
2022-10-15T02:28:00.373Z,270.98
2022-10-15T02:32:06.939Z,268.40
2022-10-15T02:36:09.191Z,265.90
2022-10-15T02:40:12.121Z,274.30
2022-10-15T02:44:14.141Z,297.90
2022-10-15T02:48:16.212Z,275.35
2022-10-15T02:52:17.992Z,233.45
2022-10-15T02:56:21.093Z,260.70
2022-10-15T03:00:23.362Z,280.58
2022-10-15T03:04:25.297Z,333.83
2022-10-15T03:08:27.191Z,308.42
2022-10-15T03:12:29.815Z,226.98
2022-10-15T03:16:32.869Z,267.08
2022-10-15T03:20:35.153Z,288.83
2022-10-15T03:24:37.108Z,218.13
2022-10-15T03:28:40.162Z,331.65
2022-10-15T03:36:48.862Z,270.50
2022-10-15T03:40:51.106Z,333.00
2022-10-15T03:45:03.478Z,269.90
2022-10-15T03:49:05.333Z,237.32
2022-10-15T03:53:07.341Z,245.70
2022-10-15T03:57:09.690Z,228.30
2022-10-15T04:01:19.325Z,261.23
2022-10-15T04:05:21.530Z,239.32
2022-10-15T04:09:28.689Z,264.52
2022-10-15T04:13:50.609Z,237.77
2022-10-15T04:17:55.941Z,237.50
2022-10-15T04:21:59.910Z,225.40
2022-10-15T04:26:07.051Z,275.65
2022-10-15T04:30:09.657Z,266.95
2022-10-15T04:34:15.075Z,257.42
2022-10-15T04:38:17.004Z,244.57
2022-10-15T04:42:31.697Z,233.45
2022-10-15T04:46:33.813Z,221.88
2022-10-15T04:50:44.033Z,225.18
2022-10-15T04:58:54.717Z,238.15
2022-10-15T05:02:58.375Z,234.65
2022-10-15T05:07:17.056Z,214.80
2022-10-15T05:11:23.156Z,217.30
2022-10-15T05:15:27.184Z,248.43
2022-10-15T05:19:29.051Z,217.63
2022-10-15T05:23:31.342Z,243.43
2022-10-15T05:27:45.552Z,195.75
2022-10-15T05:31:51.758Z,225.38
2022-10-15T05:35:58.150Z,178.55
2022-10-15T05:40:00.152Z,198.95
2022-10-15T05:44:02.306Z,193.40
2022-10-15T05:48:05.657Z,188.43
2022-10-15T05:52:07.436Z,176.02
2022-10-15T05:56:28.380Z,194.75
2022-10-15T06:00:30.479Z,184.48
2022-10-15T06:04:35.495Z,171.20
2022-10-15T06:08:37.826Z,168.05
2022-10-15T06:12:39.746Z,170.82
2022-10-15T06:16:41.416Z,163.02
2022-10-15T06:20:44.147Z,171.35
2022-10-15T06:24:45.908Z,160.45
2022-10-15T06:28:47.867Z,165.32
2022-10-15T06:32:53.703Z,145.43
2022-10-15T06:36:55.639Z,147.13
2022-10-15T06:40:57.374Z,152.68
2022-10-15T06:44:59.212Z,142.60
2022-10-15T06:49:01.057Z,143.18
2022-10-15T06:53:03.143Z,140.95
2022-10-15T06:57:04.913Z,120.70
2022-10-15T07:01:07.629Z,125.25
2022-10-15T07:05:09.803Z,118.13
2022-10-15T07:09:11.659Z,116.45
2022-10-15T07:13:14.223Z,115.80
2022-10-15T07:17:16.698Z,103.57
2022-10-15T07:21:18.510Z,112.18
2022-10-15T07:25:20.365Z,97.15
2022-10-15T07:29:22.101Z,101.53
2022-10-15T07:33:23.910Z,98.85
2022-10-15T07:37:35.046Z,108.53
2022-10-15T07:41:36.841Z,93.43
2022-10-15T07:45:38.575Z,95.88
2022-10-15T07:49:40.477Z,93.75
2022-10-15T07:53:43.938Z,87.03
2022-10-15T07:57:45.883Z,85.68
2022-10-15T08:01:49.909Z,85.40
2022-10-15T08:05:53.326Z,80.38
2022-10-15T08:09:56.151Z,77.10
2022-10-15T08:14:03.702Z,86.18
2022-10-15T08:18:05.707Z,77.38
2022-10-15T08:22:07.541Z,80.63
2022-10-15T08:26:09.240Z,78.95
2022-10-15T08:30:11.232Z,78.80
2022-10-15T08:34:13.067Z,78.00
2022-10-15T08:38:17.630Z,78.72
2022-10-15T08:42:32.148Z,76.65
2022-10-15T08:46:41.359Z,70.75
2022-10-15T08:51:01.727Z,72.22
2022-10-15T08:55:03.877Z,71.15
2022-10-15T08:59:36.819Z,60.88
2022-10-15T09:04:02.360Z,58.08
2022-10-15T09:08:29.896Z,63.83
2022-10-15T09:12:50.525Z,52.00
2022-10-15T09:16:52.301Z,53.33
2022-10-15T09:20:54.633Z,55.38
2022-10-15T09:24:56.991Z,55.92
2022-10-15T09:29:11.061Z,53.42
2022-10-15T09:33:35.540Z,61.05
2022-10-15T09:38:17.034Z,53.28
2022-10-15T09:42:31.737Z,50.42
2022-10-15T09:46:33.566Z,51.30
2022-10-15T09:50:42.813Z,51.22
2022-10-15T09:54:55.914Z,53.15
2022-10-15T09:58:58.954Z,44.05
2022-10-15T10:03:07.160Z,45.97
2022-10-15T10:07:28.427Z,46.47
2022-10-15T10:12:05.496Z,52.22
2022-10-15T10:16:10.686Z,41.63
2022-10-15T10:20:20.269Z,43.17
2022-10-15T10:24:31.922Z,45.58
2022-10-15T10:28:44.137Z,39.08
2022-10-15T10:32:47.461Z,47.25
2022-10-15T10:36:52.504Z,40.35
2022-10-15T10:40:59.228Z,40.88
2022-10-15T10:45:18.722Z,39.13
2022-10-15T10:49:32.895Z,44.08
2022-10-15T10:53:42.636Z,39.30
2022-10-15T10:57:54.513Z,36.75
2022-10-15T11:01:57.371Z,36.40
2022-10-15T11:06:20.812Z,36.30
2022-10-15T11:10:29.420Z,34.33
2022-10-15T11:14:44.153Z,38.38
2022-10-15T11:19:18.642Z,33.28
2022-10-15T11:23:43.650Z,36.63
2022-10-15T11:27:55.510Z,32.45
2022-10-15T11:32:22.157Z,36.35
2022-10-15T11:36:43.630Z,33.67
2022-10-15T11:41:01.593Z,38.97
2022-10-15T11:45:15.442Z,30.00
2022-10-15T11:49:42.258Z,28.23
2022-10-15T11:54:16.740Z,27.48
2022-10-15T11:58:29.067Z,30.23
2022-10-15T12:02:35.228Z,35.63
2022-10-15T12:06:42.636Z,28.75
2022-10-15T12:11:02.807Z,24.40
2022-10-15T12:15:32.889Z,26.00
2022-10-15T12:19:47.732Z,28.48
2022-10-15T12:23:49.548Z,28.50
2022-10-15T12:28:00.804Z,33.97
2022-10-15T12:32:02.589Z,28.27
2022-10-15T12:36:21.074Z,27.38
2022-10-15T12:40:22.652Z,26.40
2022-10-15T12:44:28.671Z,27.70
2022-10-15T12:48:36.461Z,23.52
2022-10-15T12:53:01.900Z,29.67
2022-10-15T12:57:34.525Z,29.35
2022-10-15T13:01:43.298Z,22.80
2022-10-15T13:05:47.836Z,22.92
2022-10-15T13:09:52.801Z,23.42
2022-10-15T13:14:03.181Z,24.05
2022-10-15T13:18:09.165Z,25.83
2022-10-15T13:22:31.129Z,25.88
2022-10-15T13:26:33.162Z,27.50
2022-10-15T13:30:34.841Z,22.33
2022-10-15T13:34:36.708Z,23.73
2022-10-15T13:38:41.127Z,25.77
2022-10-15T13:43:00.255Z,28.92
2022-10-15T13:47:02.593Z,30.48
2022-10-15T13:51:05.668Z,30.35
2022-10-15T13:55:17.793Z,25.90
2022-10-15T13:59:20.794Z,26.85
2022-10-15T14:03:35.842Z,26.70
2022-10-15T14:07:37.734Z,28.58
2022-10-15T14:11:40.078Z,32.58
2022-10-15T14:15:51.287Z,27.13
2022-10-15T14:20:14.753Z,26.58
2022-10-15T14:24:27.201Z,28.63
2022-10-15T14:28:33.118Z,28.50
2022-10-15T14:32:48.232Z,25.83
2022-10-15T14:36:49.921Z,23.50
2022-10-15T14:41:04.863Z,27.00
2022-10-15T14:45:17.895Z,26.75
2022-10-15T14:49:27.419Z,25.05
2022-10-15T14:53:36.629Z,28.33
2022-10-15T14:57:41.740Z,31.48
2022-10-15T15:01:56.014Z,30.38
2022-10-15T15:06:00.384Z,29.08
2022-10-15T15:10:02.167Z,29.35
2022-10-15T15:14:04.055Z,25.33
2022-10-15T15:18:05.847Z,32.42
2022-10-15T15:22:11.845Z,26.02
2022-10-15T15:26:13.576Z,31.65
2022-10-15T15:30:18.953Z,30.50
2022-10-15T15:34:20.665Z,32.33
2022-10-15T15:38:30.616Z,36.28
2022-10-15T15:42:33.221Z,32.78
2022-10-15T15:46:35.005Z,30.48
2022-10-15T15:50:37.358Z,32.10
2022-10-15T15:54:43.113Z,33.05
2022-10-15T15:58:45.642Z,32.55
2022-10-15T16:02:47.739Z,35.15
2022-10-15T16:06:49.628Z,39.58
2022-10-15T16:10:51.478Z,43.35
2022-10-15T16:14:53.262Z,39.35
2022-10-15T16:18:55.229Z,41.10
2022-10-15T16:22:57.049Z,50.40
2022-10-15T16:26:59.046Z,43.28
2022-10-15T16:31:15.148Z,40.53
2022-10-15T16:35:17.128Z,45.67
2022-10-15T16:39:18.906Z,56.55
2022-10-15T16:43:20.703Z,47.45
2022-10-15T16:47:22.630Z,79.85
2022-10-15T16:51:25.239Z,57.05
2022-10-15T16:55:28.794Z,54.33
2022-10-15T16:59:31.085Z,239.43
2022-10-15T17:03:35.518Z,73.25
2022-10-15T17:07:37.978Z,59.30
2022-10-15T17:11:41.993Z,49.85
2022-10-15T17:15:43.877Z,43.28
2022-10-15T17:19:46.154Z,45.67
2022-10-15T17:23:50.420Z,53.25
2022-10-15T17:27:52.612Z,49.50
2022-10-15T17:31:54.572Z,58.45
2022-10-15T17:35:56.291Z,51.67
2022-10-15T17:39:58.273Z,44.85
2022-10-15T17:44:00.075Z,54.35
2022-10-15T17:48:01.879Z,54.38
2022-10-15T17:52:03.608Z,50.35
2022-10-15T17:56:16.177Z,61.13
2022-10-15T18:00:18.246Z,61.22
2022-10-15T18:04:20.041Z,67.03
2022-10-15T18:08:21.876Z,67.53
2022-10-15T18:12:23.718Z,63.95
2022-10-15T18:16:25.886Z,65.43
2022-10-15T18:20:27.848Z,66.28
2022-10-15T18:24:29.589Z,63.42
2022-10-15T18:28:32.313Z,66.55
2022-10-15T18:36:42.439Z,61.28
2022-10-15T18:40:44.405Z,57.83
2022-10-15T18:44:46.243Z,60.97
2022-10-15T18:48:48.963Z,59.80
2022-10-15T18:52:50.764Z,57.65
2022-10-15T18:56:52.893Z,51.33
2022-10-15T19:00:55.788Z,53.92
2022-10-15T19:04:57.531Z,56.92
2022-10-15T19:09:00.751Z,66.45
2022-10-15T19:13:05.230Z,57.65
2022-10-15T19:17:07.036Z,58.15
2022-10-15T19:21:10.958Z,61.50
2022-10-15T19:25:12.925Z,61.70
2022-10-15T19:29:15.089Z,64.35
2022-10-15T19:33:17.073Z,64.32
2022-10-15T19:37:19.719Z,65.60
2022-10-15T19:41:24.896Z,59.22
2022-10-15T19:45:26.695Z,62.38
2022-10-15T19:49:28.497Z,63.72
2022-10-15T19:53:30.897Z,55.20
2022-10-15T19:57:32.854Z,66.80
2022-10-15T20:01:34.679Z,54.90
2022-10-15T20:05:36.523Z,54.70
2022-10-15T20:09:38.482Z,53.78
2022-10-15T20:13:40.503Z,49.10
2022-10-15T20:17:42.124Z,50.58
2022-10-15T20:21:44.017Z,45.60
2022-10-15T20:25:46.439Z,52.13
2022-10-15T20:29:48.231Z,53.80
2022-10-15T20:33:49.909Z,56.58
2022-10-15T20:37:51.738Z,52.15
2022-10-15T20:41:53.458Z,50.25
2022-10-15T20:45:56.158Z,54.88
2022-10-15T20:49:57.824Z,46.08
2022-10-15T20:53:59.888Z,50.20
2022-10-15T20:58:01.750Z,54.13
2022-10-15T21:02:04.086Z,43.20
2022-10-15T21:06:05.936Z,45.78
2022-10-15T21:10:08.254Z,52.17
2022-10-15T21:14:11.822Z,43.03
2022-10-15T21:18:13.724Z,41.10
2022-10-15T21:22:15.503Z,43.00
2022-10-15T21:26:18.242Z,47.28
2022-10-15T21:30:19.986Z,40.47
2022-10-15T21:34:27.308Z,40.33
2022-10-15T21:38:28.990Z,44.92
2022-10-15T21:42:30.919Z,39.28
2022-10-15T21:46:33.740Z,41.80
2022-10-15T21:50:35.612Z,41.65
2022-10-15T21:54:37.258Z,42.45
2022-10-15T21:58:40.306Z,42.60
2022-10-15T22:02:42.231Z,43.08
2022-10-15T22:06:44.087Z,43.38
2022-10-15T22:10:45.836Z,43.75
2022-10-15T22:14:47.573Z,36.13
2022-10-15T22:18:49.648Z,41.13
2022-10-15T22:22:54.515Z,40.80
2022-10-15T22:26:56.324Z,38.15
2022-10-15T22:31:08.466Z,46.13
2022-10-15T22:35:10.405Z,44.03
2022-10-15T22:39:13.987Z,46.80
2022-10-15T22:43:15.622Z,40.63
2022-10-15T22:47:17.473Z,42.58
2022-10-15T22:51:19.742Z,42.10
2022-10-15T22:55:21.572Z,38.55
2022-10-15T22:59:23.394Z,36.97
2022-10-15T23:03:25.193Z,40.03
2022-10-15T23:07:26.855Z,37.83
2022-10-15T23:11:37.692Z,34.50
2022-10-15T23:15:39.319Z,33.03
2022-10-15T23:19:41.087Z,35.25
2022-10-15T23:23:44.928Z,30.48
2022-10-15T23:27:46.737Z,31.67
2022-10-15T23:31:49.778Z,29.92
2022-10-15T23:36:02.210Z,33.00
2022-10-15T23:40:04.186Z,30.42
2022-10-15T23:44:06.008Z,34.10
2022-10-15T23:48:07.820Z,28.05
2022-10-15T23:52:09.658Z,30.70
2022-10-15T23:56:11.688Z,27.98
